createdAt,value
2019-01-06T00:01:12.836Z,99178.38
2019-01-06T00:04:14.182Z,99177.27
2019-01-06T00:07:05.838Z,99179.79
2019-01-06T00:09:56.019Z,99178.14
2019-01-06T00:13:02.940Z,99176.38
2019-01-06T00:15:53.015Z,99175.86
2019-01-06T00:18:53.710Z,99177.94
2019-01-06T00:21:38.916Z,99171.64
2019-01-06T00:24:29.442Z,99177.20
2019-01-06T00:30:37.354Z,99176.75
2019-01-06T00:33:28.906Z,99169.31
2019-01-06T00:36:20.478Z,99175.05
2019-01-06T00:39:07.347Z,99170.56
2019-01-06T00:41:58.943Z,99172.39
2019-01-06T00:44:50.504Z,99171.00
2019-01-06T00:47:32.409Z,99168.80
2019-01-06T00:50:46.482Z,99174.31
2019-01-06T00:53:38.102Z,99170.44
2019-01-06T00:56:26.195Z,99168.64
2019-01-06T00:59:17.772Z,99182.12
2019-01-06T01:02:09.380Z,99178.59
2019-01-06T01:05:00.943Z,99180.44
2019-01-06T01:07:52.642Z,99185.05
2019-01-06T01:10:44.222Z,99182.52
2019-01-06T01:13:35.945Z,99180.47
2019-01-06T01:16:27.484Z,99184.78
2019-01-06T01:19:19.102Z,99184.66
2019-01-06T01:22:10.659Z,99184.03
2019-01-06T01:25:02.240Z,99186.63
2019-01-06T01:27:53.775Z,99188.20
2019-01-06T01:30:45.330Z,99194.96
2019-01-06T01:33:36.930Z,99192.84
2019-01-06T01:36:28.454Z,99206.23
2019-01-06T01:39:20.021Z,99198.33
2019-01-06T01:42:11.560Z,99203.48
2019-01-06T01:45:03.141Z,99196.54
2019-01-06T01:47:54.700Z,99207.15
2019-01-06T01:50:37.933Z,99205.59
2019-01-06T01:53:29.493Z,99200.78
2019-01-06T01:56:21.033Z,99202.55
2019-01-06T01:59:12.650Z,99201.23
2019-01-06T02:02:04.207Z,99201.80
2019-01-06T02:04:55.748Z,99204.77
2019-01-06T02:07:47.286Z,99207.92
2019-01-06T02:10:38.851Z,99209.06
2019-01-06T02:13:30.390Z,99204.77
2019-01-06T02:16:21.969Z,99202.42
2019-01-06T02:19:16.614Z,99205.83
2019-01-06T02:22:13.995Z,99207.84
2019-01-06T02:25:04.461Z,99206.41
2019-01-06T02:27:56.049Z,99205.22
2019-01-06T02:30:56.742Z,99210.32
2019-01-06T02:33:54.213Z,99206.84
2019-01-06T02:37:04.025Z,99209.75
2019-01-06T02:39:58.523Z,99205.27
2019-01-06T02:42:47.500Z,99200.51
2019-01-06T02:45:45.196Z,99198.73
2019-01-06T02:48:36.489Z,99195.35
2019-01-06T02:51:30.832Z,99200.64
2019-01-06T02:54:20.365Z,99204.55
2019-01-06T02:57:10.389Z,99198.88
2019-01-06T03:00:20.320Z,99206.85
2019-01-06T03:03:11.935Z,99195.45
2019-01-06T03:06:09.258Z,99198.36
2019-01-06T03:08:58.368Z,99197.23
2019-01-06T03:11:50.733Z,99195.27
2019-01-06T03:14:42.324Z,99185.80
2019-01-06T03:17:33.891Z,99191.37
2019-01-06T03:20:37.787Z,99191.84
2019-01-06T03:23:35.217Z,99182.64
2019-01-06T03:26:25.352Z,99182.30
2019-01-06T03:29:15.805Z,99181.61
2019-01-06T03:32:07.352Z,99169.94
2019-01-06T03:34:58.940Z,99167.98
2019-01-06T03:37:48.935Z,99172.09
2019-01-06T03:40:40.620Z,99167.55
2019-01-06T03:43:34.977Z,99167.46
2019-01-06T03:46:35.733Z,99171.45
2019-01-06T03:49:26.106Z,99166.98
2019-01-06T03:52:27.987Z,99172.84
2019-01-06T03:55:28.451Z,99165.88
2019-01-06T03:58:35.288Z,99171.95
2019-01-06T04:01:30.038Z,99173.60
2019-01-06T04:04:11.186Z,99172.77
2019-01-06T04:07:02.761Z,99172.20
2019-01-06T04:10:03.482Z,99172.52
2019-01-06T04:12:57.899Z,99172.14
2019-01-06T04:15:50.474Z,99173.23
2019-01-06T04:18:40.649Z,99176.63
2019-01-06T04:21:32.262Z,99181.69
2019-01-06T04:24:22.168Z,99171.58
2019-01-06T04:27:13.848Z,99172.97
2019-01-06T04:30:03.354Z,99181.20
2019-01-06T04:32:53.137Z,99173.05
2019-01-06T04:35:43.394Z,99177.84
2019-01-06T04:38:33.883Z,99180.02
2019-01-06T04:41:40.757Z,99177.53
2019-01-06T04:44:38.195Z,99174.42
2019-01-06T04:47:26.007Z,99169.05
2019-01-06T04:50:16.173Z,99166.29
2019-01-06T04:53:06.664Z,99169.56
2019-01-06T04:56:04.323Z,99174.81
2019-01-06T04:59:07.992Z,99170.19
2019-01-06T05:02:05.350Z,99174.00
2019-01-06T05:05:12.057Z,99178.92
2019-01-06T05:08:15.678Z,99181.36
2019-01-06T05:11:10.049Z,99178.52
2019-01-06T05:14:13.897Z,99178.09
2019-01-06T05:16:59.275Z,99176.50
2019-01-06T05:19:51.334Z,99170.19
2019-01-06T05:22:41.812Z,99171.89
2019-01-06T05:25:39.748Z,99176.82
2019-01-06T05:28:43.341Z,99178.98
2019-01-06T05:31:33.590Z,99178.61
2019-01-06T05:34:24.216Z,99176.63
2019-01-06T05:37:14.889Z,99179.94
2019-01-06T05:40:21.876Z,99180.55
2019-01-06T05:43:12.172Z,99183.59
2019-01-06T05:46:12.791Z,99179.05
2019-01-06T05:49:07.114Z,99186.11
2019-01-06T05:52:10.740Z,99182.33
2019-01-06T05:55:11.204Z,99179.38
2019-01-06T05:58:08.787Z,99183.53
2019-01-06T06:01:00.364Z,99188.45
2019-01-06T06:03:50.563Z,99192.23
2019-01-06T06:06:48.458Z,99187.90
2019-01-06T06:09:38.683Z,99194.22
2019-01-06T06:12:30.293Z,99197.06
2019-01-06T06:15:20.478Z,99195.66
2019-01-06T06:18:10.971Z,99195.80
2019-01-06T06:21:01.484Z,99198.97
2019-01-06T06:23:52.130Z,99197.62
2019-01-06T06:26:59.058Z,99196.74
2019-01-06T06:30:02.859Z,99201.48
2019-01-06T06:32:59.556Z,99201.67
2019-01-06T06:35:50.210Z,99207.08
2019-01-06T06:38:40.825Z,99208.34
2019-01-06T06:41:32.442Z,99210.70
2019-01-06T06:44:22.493Z,99214.11
2019-01-06T06:47:29.373Z,99213.62
2019-01-06T06:50:29.744Z,99223.22
2019-01-06T06:53:36.405Z,99228.89
2019-01-06T06:56:43.266Z,99226.31
2019-01-06T06:59:37.731Z,99228.34
2019-01-06T07:03:08.884Z,99233.72
2019-01-06T07:06:15.968Z,99239.02
2019-01-06T07:09:06.372Z,99245.38
2019-01-06T07:11:57.986Z,99239.81
2019-01-06T07:15:07.994Z,99242.11
2019-01-06T07:18:12.695Z,99235.47
2019-01-06T07:21:08.871Z,99249.17
2019-01-06T07:23:59.350Z,99249.91
2019-01-06T07:26:48.602Z,99256.19
2019-01-06T07:29:39.164Z,99257.82
2019-01-06T07:32:46.050Z,99266.11
2019-01-06T07:35:36.191Z,99262.55
2019-01-06T07:38:29.086Z,99269.39
2019-01-06T07:41:19.515Z,99269.39
2019-01-06T07:44:09.973Z,99272.98
2019-01-06T07:47:00.417Z,99276.03
2019-01-06T07:49:53.856Z,99274.77
2019-01-06T07:53:00.867Z,99275.97
2019-01-06T07:55:51.225Z,99277.95
2019-01-06T07:58:45.555Z,99278.50
2019-01-06T08:01:35.791Z,99285.34
2019-01-06T08:04:33.501Z,99291.14
2019-01-06T08:07:23.654Z,99296.71
2019-01-06T08:10:21.304Z,99296.98
2019-01-06T08:13:20.490Z,99296.05
2019-01-06T08:16:12.104Z,99304.43
2019-01-06T08:19:06.826Z,99303.88
2019-01-06T08:22:08.295Z,99304.58
2019-01-06T08:28:06.197Z,99303.95
2019-01-06T08:30:59.717Z,99301.98
2019-01-06T08:34:09.425Z,99300.87
2019-01-06T08:36:59.546Z,99301.80
2019-01-06T08:39:51.104Z,99305.92
2019-01-06T08:42:46.123Z,99306.99
2019-01-06T08:45:53.984Z,99310.78
2019-01-06T08:48:51.397Z,99309.00
2019-01-06T08:51:45.965Z,99307.17
2019-01-06T08:54:49.586Z,99312.92
2019-01-06T08:57:50.228Z,99313.45
2019-01-06T09:00:47.855Z,99318.31
2019-01-06T09:03:41.982Z,99321.36
2019-01-06T09:06:42.854Z,99320.79
2019-01-06T09:09:33.096Z,99321.36
2019-01-06T09:12:20.837Z,99324.97
2019-01-06T09:15:16.481Z,99324.45
2019-01-06T09:18:08.158Z,99328.94
2019-01-06T09:20:58.673Z,99332.17
2019-01-06T09:24:05.637Z,99336.16
2019-01-06T09:26:55.895Z,99343.03
2019-01-06T09:29:50.652Z,99347.48
2019-01-06T09:33:00.388Z,99348.23
2019-01-06T09:35:54.633Z,99357.60
2019-01-06T09:38:51.998Z,99353.42
2019-01-06T09:41:43.617Z,99359.55
2019-01-06T09:44:34.096Z,99358.80
2019-01-06T09:47:35.009Z,99358.38
2019-01-06T09:50:38.702Z,99353.89
2019-01-06T09:53:28.786Z,99348.36
2019-01-06T09:56:19.309Z,99351.36
2019-01-06T09:59:10.960Z,99353.00
2019-01-06T10:02:21.099Z,99345.28
2019-01-06T10:05:12.704Z,99349.26
2019-01-06T10:08:01.742Z,99350.21
2019-01-06T10:10:56.713Z,99355.61
2019-01-06T10:13:57.293Z,99348.95
2019-01-06T10:16:47.591Z,99349.09
2019-01-06T10:19:48.355Z,99349.93
2019-01-06T10:22:38.738Z,99347.06
2019-01-06T10:25:29.336Z,99349.36
2019-01-06T10:28:30.194Z,99347.84
2019-01-06T10:31:21.811Z,99348.42
2019-01-06T10:34:08.105Z,99349.44
2019-01-06T10:36:58.276Z,99348.87
2019-01-06T10:39:49.855Z,99342.29
2019-01-06T10:42:41.482Z,99342.66
2019-01-06T10:45:36.139Z,99344.80
2019-01-06T10:48:36.615Z,99346.45
2019-01-06T10:51:28.207Z,99346.78
2019-01-06T10:54:25.446Z,99346.78
2019-01-06T10:57:15.814Z,99355.42
2019-01-06T11:00:26.038Z,99353.23
2019-01-06T11:03:16.276Z,99356.84
2019-01-06T11:06:26.269Z,99352.48
2019-01-06T11:09:16.699Z,99351.77
2019-01-06T11:12:10.859Z,99347.97
2019-01-06T11:15:05.306Z,99351.58
2019-01-06T11:17:59.926Z,99354.88
2019-01-06T11:21:04.733Z,99360.00
2019-01-06T11:23:56.403Z,99349.76
2019-01-06T11:26:49.306Z,99355.25
2019-01-06T11:29:39.776Z,99353.84
2019-01-06T11:32:43.661Z,99352.41
2019-01-06T11:35:33.922Z,99353.62
2019-01-06T11:38:43.812Z,99355.38
2019-01-06T11:41:47.608Z,99350.51
2019-01-06T11:44:54.029Z,99356.72
2019-01-06T11:47:54.703Z,99350.77
2019-01-06T11:50:44.876Z,99352.41
2019-01-06T11:53:36.890Z,99347.91
2019-01-06T11:56:28.527Z,99353.47
2019-01-06T11:59:35.236Z,99350.82
2019-01-06T12:02:25.490Z,99348.48
2019-01-06T12:05:32.057Z,99355.77
2019-01-06T12:08:41.871Z,99354.13
2019-01-06T12:11:32.077Z,99361.09
2019-01-06T12:14:35.398Z,99358.61
2019-01-06T12:17:36.054Z,99362.78
2019-01-06T12:20:45.742Z,99366.52
2019-01-06T12:23:37.398Z,99362.09
2019-01-06T12:26:41.313Z,99361.95
2019-01-06T12:29:38.761Z,99364.31
2019-01-06T12:32:29.023Z,99371.70
2019-01-06T12:35:23.655Z,99372.03
2019-01-06T12:38:30.407Z,99370.02
2019-01-06T12:41:20.825Z,99368.36
2019-01-06T12:44:11.205Z,99365.88
2019-01-06T12:47:12.025Z,99369.48
2019-01-06T12:50:15.544Z,99375.76
2019-01-06T12:53:19.247Z,99372.97
2019-01-06T12:56:26.466Z,99379.12
2019-01-06T12:59:33.494Z,99377.17
2019-01-06T13:02:17.040Z,99380.96
2019-01-06T13:05:07.541Z,99374.64
2019-01-06T13:08:17.139Z,99376.20
2019-01-06T13:11:11.743Z,99381.90
2019-01-06T13:14:02.143Z,99378.36
2019-01-06T13:16:59.654Z,99385.63
2019-01-06T13:20:06.439Z,99384.88
2019-01-06T13:22:56.621Z,99379.30
2019-01-06T13:25:46.822Z,99383.30
2019-01-06T13:28:37.360Z,99385.83
2019-01-06T13:31:22.904Z,99390.00
2019-01-06T13:34:14.497Z,99389.42
2019-01-06T13:37:04.908Z,99393.23
2019-01-06T13:39:55.466Z,99400.45
2019-01-06T13:42:45.687Z,99402.98
2019-01-06T13:45:36.123Z,99408.22
2019-01-06T13:48:26.503Z,99410.00
2019-01-06T13:51:27.245Z,99418.54
2019-01-06T13:54:33.974Z,99413.48
2019-01-06T13:57:24.297Z,99419.88
2019-01-06T14:00:23.138Z,99421.47
2019-01-06T14:03:27.025Z,99424.55
2019-01-06T14:06:17.426Z,99432.52
2019-01-06T14:09:12.433Z,99432.86
2019-01-06T14:12:12.628Z,99435.52
2019-01-06T14:15:04.262Z,99440.06
2019-01-06T14:18:07.682Z,99447.77
2019-01-06T14:21:03.367Z,99442.95
2019-01-06T14:23:57.807Z,99449.98
2019-01-06T14:27:05.369Z,99447.45
2019-01-06T14:30:09.189Z,99447.63
2019-01-06T14:33:10.174Z,99448.19
2019-01-06T14:36:13.769Z,99457.05
2019-01-06T14:39:20.519Z,99460.99
2019-01-06T14:42:11.126Z,99462.02
2019-01-06T14:45:01.776Z,99462.06
2019-01-06T14:47:48.536Z,99463.91
2019-01-06T14:50:40.176Z,99464.41
2019-01-06T14:53:44.085Z,99465.92
2019-01-06T14:56:34.277Z,99468.11
2019-01-06T14:59:25.605Z,99472.67
2019-01-06T15:02:15.929Z,99476.09
2019-01-06T15:05:10.644Z,99470.00
2019-01-06T15:08:00.888Z,99472.16
2019-01-06T15:10:47.987Z,99474.87
2019-01-06T15:13:48.659Z,99474.87
2019-01-06T15:16:39.120Z,99475.95
2019-01-06T15:19:30.783Z,99480.08
2019-01-06T15:22:21.065Z,99479.89
2019-01-06T15:25:14.082Z,99475.95
2019-01-06T15:28:04.356Z,99475.77
2019-01-06T15:30:54.990Z,99476.70
2019-01-06T15:33:45.754Z,99483.59
2019-01-06T15:36:36.444Z,99482.52
2019-01-06T15:39:16.369Z,99485.41
2019-01-06T15:42:19.800Z,99488.09
2019-01-06T15:45:26.511Z,99484.34
2019-01-06T15:48:31.598Z,99491.89
2019-01-06T15:51:35.593Z,99485.74
2019-01-06T15:54:29.983Z,99492.31
2019-01-06T15:57:33.662Z,99486.21
2019-01-06T16:00:34.715Z,99491.05
2019-01-06T16:03:39.606Z,99492.78
2019-01-06T16:06:30.137Z,99491.52
2019-01-06T16:09:30.982Z,99490.34
2019-01-06T16:12:21.224Z,99495.22
2019-01-06T16:15:11.901Z,99490.90
2019-01-06T16:18:02.472Z,99498.77
2019-01-06T16:20:53.707Z,99491.88
2019-01-06T16:23:44.600Z,99500.13
2019-01-06T16:26:39.374Z,99500.84
2019-01-06T16:29:31.024Z,99498.82
2019-01-06T16:32:22.735Z,99507.16
2019-01-06T16:35:20.684Z,99503.78
2019-01-06T16:38:26.668Z,99512.27
2019-01-06T16:41:27.553Z,99503.26
2019-01-06T16:44:18.041Z,99511.70
2019-01-06T16:47:27.980Z,99515.08
2019-01-06T16:50:28.748Z,99515.08
2019-01-06T16:53:19.006Z,99515.03
2019-01-06T16:56:06.245Z,99520.42
2019-01-06T16:58:57.903Z,99516.91
2019-01-06T17:01:56.483Z,99519.52
2019-01-06T17:04:46.687Z,99521.53
2019-01-06T17:07:38.453Z,99526.48
2019-01-06T17:10:42.329Z,99524.81
2019-01-06T17:13:39.759Z,99530.57
2019-01-06T17:16:30.000Z,99530.57
2019-01-06T17:19:13.728Z,99522.46
2019-01-06T17:22:13.683Z,99521.53
2019-01-06T17:25:05.359Z,99516.29
2019-01-06T17:27:57.454Z,99523.21
2019-01-06T17:31:04.374Z,99524.99
2019-01-06T17:34:07.961Z,99521.20
2019-01-06T17:36:56.692Z,99523.21
2019-01-06T17:39:46.655Z,99522.95
2019-01-06T17:42:36.920Z,99521.12
2019-01-06T17:45:27.220Z,99521.02
2019-01-06T17:48:23.897Z,99522.47
2019-01-06T17:51:27.773Z,99521.77
2019-01-06T17:54:22.626Z,99521.30
2019-01-06T17:57:32.781Z,99524.77
2019-01-06T18:00:30.353Z,99526.03
2019-01-06T18:03:27.783Z,99529.16
2019-01-06T18:06:18.219Z,99528.08
2019-01-06T18:09:09.967Z,99524.66
2019-01-06T18:12:00.493Z,99525.97
2019-01-06T18:15:10.548Z,99523.81
2019-01-06T18:18:00.769Z,99526.34
2019-01-06T18:20:50.952Z,99533.38
2019-01-06T18:26:52.619Z,99536.01
2019-01-06T18:30:02.555Z,99539.05
2019-01-06T18:32:56.964Z,99538.91
2019-01-06T18:35:42.281Z,99547.09
2019-01-06T18:38:34.032Z,99549.47
2019-01-06T18:41:24.568Z,99548.84
2019-01-06T18:44:30.663Z,99551.78
2019-01-06T18:47:29.002Z,99552.45
2019-01-06T18:50:23.390Z,99552.67
2019-01-06T18:53:13.786Z,99551.26
2019-01-06T18:56:14.596Z,99553.38
2019-01-06T18:59:00.985Z,99552.34
2019-01-06T19:01:59.019Z,99556.28
2019-01-06T19:04:55.251Z,99549.32
2019-01-06T19:07:49.780Z,99553.16
2019-01-06T19:10:44.173Z,99552.67
2019-01-06T19:13:41.653Z,99550.14
2019-01-06T19:16:51.691Z,99555.91
2019-01-06T19:19:50.362Z,99557.88
2019-01-06T19:22:37.631Z,99560.89
2019-01-06T19:25:29.277Z,99572.02
2019-01-06T19:28:19.454Z,99568.41
2019-01-06T19:31:11.944Z,99564.58
2019-01-06T19:34:02.543Z,99571.27
2019-01-06T19:36:54.171Z,99578.48
2019-01-06T19:39:44.846Z,99573.95
2019-01-06T19:42:51.813Z,99571.94
2019-01-06T19:45:43.424Z,99577.03
2019-01-06T19:48:30.240Z,99580.80
2019-01-06T19:51:27.555Z,99576.85
2019-01-06T19:54:31.292Z,99577.41
2019-01-06T19:57:34.963Z,99582.95
2019-01-06T20:00:35.419Z,99574.28
2019-01-06T20:03:30.262Z,99577.74
2019-01-06T20:06:24.919Z,99582.62
2019-01-06T20:09:24.710Z,99577.59
2019-01-06T20:12:15.468Z,99577.41
2019-01-06T20:15:19.514Z,99579.19
2019-01-06T20:18:11.186Z,99580.09
2019-01-06T20:21:10.434Z,99576.48
2019-01-06T20:24:00.797Z,99583.17
2019-01-06T20:26:47.053Z,99582.13
2019-01-06T20:29:37.538Z,99578.45
2019-01-06T20:32:29.297Z,99584.41
2019-01-06T20:35:20.901Z,99585.85
2019-01-06T20:38:12.548Z,99584.44
2019-01-06T20:41:04.298Z,99589.65
2019-01-06T20:43:55.912Z,99583.66
2019-01-06T20:46:47.982Z,99585.30
2019-01-06T20:49:39.577Z,99590.35
2019-01-06T20:52:31.165Z,99594.70
2019-01-06T20:55:22.776Z,99588.79
2019-01-06T20:58:14.444Z,99585.52
2019-01-06T21:01:04.830Z,99589.46
2019-01-06T21:03:56.537Z,99584.59
2019-01-06T21:06:52.202Z,99583.17
2019-01-06T21:09:37.664Z,99586.04
2019-01-06T21:12:28.159Z,99587.64
2019-01-06T21:15:18.777Z,99581.69
2019-01-06T21:18:09.190Z,99591.06
2019-01-06T21:21:06.910Z,99586.34
2019-01-06T21:23:51.733Z,99587.27
2019-01-06T21:26:55.675Z,99588.68
2019-01-06T21:29:53.219Z,99591.09
2019-01-06T21:32:41.684Z,99589.27
2019-01-06T21:35:36.267Z,99592.88
2019-01-06T21:38:31.918Z,99601.14
2019-01-06T21:41:22.402Z,99597.53
2019-01-06T21:44:25.136Z,99594.86
2019-01-06T21:47:19.544Z,99596.49
2019-01-06T21:50:14.240Z,99596.49
2019-01-06T21:53:14.881Z,99604.64
2019-01-06T21:56:12.295Z,99607.77
2019-01-06T21:59:03.224Z,99604.94
2019-01-06T22:01:54.958Z,99603.04
2019-01-06T22:04:53.332Z,99602.03
2019-01-06T22:07:54.241Z,99594.38
2019-01-06T22:10:45.913Z,99596.16
2019-01-06T22:13:32.077Z,99595.97
2019-01-06T22:16:24.968Z,99596.72
2019-01-06T22:19:15.646Z,99601.44
2019-01-06T22:22:06.150Z,99594.89
2019-01-06T22:25:13.133Z,99589.50
2019-01-06T22:28:13.660Z,99595.05
2019-01-06T22:31:04.481Z,99593.44
2019-01-06T22:34:05.295Z,99591.09
2019-01-06T22:36:58.474Z,99585.00
2019-01-06T22:39:53.160Z,99581.53
2019-01-06T22:42:47.797Z,99575.55
2019-01-06T22:45:54.721Z,99577.70
2019-01-06T22:48:42.247Z,99584.22
2019-01-06T22:51:36.584Z,99578.11
2019-01-06T22:54:28.208Z,99585.66
2019-01-06T22:57:18.715Z,99588.91
2019-01-06T23:00:09.309Z,99588.91
2019-01-06T23:02:57.230Z,99587.45
2019-01-06T23:05:48.826Z,99591.80
2019-01-06T23:08:45.478Z,99597.13
2019-01-06T23:11:27.651Z,99593.22
2019-01-06T23:14:18.078Z,99594.15
2019-01-06T23:16:59.643Z,99593.62
2019-01-06T23:19:51.803Z,99595.30
2019-01-06T23:22:46.577Z,99597.80
2019-01-06T23:25:50.405Z,99587.34
2019-01-06T23:28:48.247Z,99595.45
2019-01-06T23:31:39.859Z,99598.47
2019-01-06T23:34:31.505Z,99603.52
2019-01-06T23:37:35.035Z,99603.64
2019-01-06T23:40:32.532Z,99598.13
2019-01-06T23:43:17.241Z,99598.69
2019-01-06T23:46:09.167Z,99595.11
2019-01-06T23:48:59.430Z,99596.37
2019-01-06T23:52:03.303Z,99603.70
2019-01-06T23:55:06.951Z,99599.80
2019-01-06T23:58:01.336Z,99600.88
